Shana Des Slops — FFZR — position and weather

sailwx.info

Track history (hours):
 
Tides and Currents Weather Stations Pressure Air Temp Water Temp Dewpoint Dewpoint Depression Visibility Wind Speed Wind Dir Waves Ship Positions

Shana Des Slops

Last reported at 2017-Mar-29 16:30 UTC. Time now 2017-Mar-29 17:12 UTC.
Position N 43°24' E 004°60'.

Length 47 m; draft 3.2 m.

Type: Ship. MMSI: 228003800.

Date/timePositionNaut miles runAvg speedWind from/ knotsBaromVisibWave heightAir tempDewpointWater temp
2017-Mar-29 16:30N 43°24' E 004°60'0 0.0
2017-Mar-29 15:30N 43°24' E 004°60'0 0.0
2017-Mar-29 14:30N 43°24' E 004°60'0 0.0
2017-Mar-29 13:33N 43°24' E 004°60'1 0.6
2017-Mar-29 12:28N 43°24' E 004°59'0 0.0
2017-Mar-29 11:28N 43°24' E 004°59'0 0.0
2017-Mar-29 10:28N 43°24' E 004°59'0 0.0
2017-Mar-29 09:18N 43°24' E 004°59'0 0.0
2017-Mar-29 08:30N 43°24' E 004°59'0 0.0
2017-Mar-29 07:31N 43°24' E 004°59'0 0.0
2017-Mar-29 06:33N 43°24' E 004°59'1 0.7
2017-Mar-29 05:32N 43°24' E 004°60'0 0.0
2017-Mar-29 04:32N 43°24' E 004°60'0 0.0
2017-Mar-29 03:32N 43°24' E 004°60'0 0.0
2017-Mar-29 02:32N 43°24' E 004°60'0 0.0
2017-Mar-29 01:26N 43°24' E 004°60'0 0.0
2017-Mar-29 00:32N 43°24' E 004°60'0 0.0
2017-Mar-28 23:32N 43°24' E 004°60'0 0.0
2017-Mar-28 22:32N 43°24' E 004°60'0 0.0
2017-Mar-28 21:32N 43°24' E 004°60'0 0.0
2017-Mar-28 20:32N 43°24' E 004°60'0 0.0
2017-Mar-28 19:32N 43°24' E 004°60'0 0.0
2017-Mar-28 18:32N 43°24' E 004°60'0 0.0
2017-Mar-28 17:32N 43°24' E 004°60'0 0.0
2017-Mar-28 16:32N 43°24' E 004°60'0 0.0
2017-Mar-28 15:32N 43°24' E 004°60'0 0.0
2017-Mar-28 14:32N 43°24' E 004°60'0 0.0
2017-Mar-28 13:32N 43°24' E 004°60'1 1.3
2017-Mar-28 12:33N 43°24' E 004°58'1 0.3
2017-Mar-28 09:32N 43°24' E 004°57'0 0.0
2017-Mar-28 08:31N 43°24' E 004°57'2 1.9
2017-Mar-28 07:30N 43°24' E 004°60'0 0.0
2017-Mar-28 06:18N 43°24' E 004°60'0 0.0
2017-Mar-28 05:30N 43°24' E 004°60'0 0.0
2017-Mar-28 04:12N 43°24' E 004°60'0 0.0
2017-Mar-28 03:30N 43°24' E 004°60'0 0.0
2017-Mar-28 02:30N 43°24' E 004°60'0 0.0
2017-Mar-28 01:30N 43°24' E 004°60'0 0.0
2017-Mar-28 00:30N 43°24' E 004°60'0 0.0
2017-Mar-27 23:30N 43°24' E 004°60'0 0.0
2017-Mar-27 22:30N 43°24' E 004°60'0 0.0
2017-Mar-27 21:24N 43°24' E 004°60'0 0.0
2017-Mar-27 20:24N 43°24' E 004°60'0 0.0
2017-Mar-27 19:30N 43°24' E 004°60'0 0.0
2017-Mar-27 18:18N 43°24' E 004°60'0 0.0
2017-Mar-27 17:30N 43°24' E 004°60'0 0.0
2017-Mar-27 16:30N 43°24' E 004°60'0 0.0
2017-Mar-27 15:30N 43°24' E 004°60'0 0.0
2017-Mar-27 14:24N 43°24' E 004°60'0 0.0
2017-Mar-27 13:30N 43°24' E 004°60'0 0.3
2017-Mar-27 12:33N 43°24' E 004°60'3 0.8
2017-Mar-27 08:33N 43°25' E 004°55'3 3.1
2017-Mar-27 07:29N 43°24' E 004°60'0 0.0
2017-Mar-27 06:29N 43°24' E 004°60'0 0.0
2017-Mar-27 05:23N 43°24' E 004°60'0 0.0
2017-Mar-27 04:23N 43°24' E 004°60'0 0.0
2017-Mar-27 03:11N 43°24' E 004°60'0 0.0
2017-Mar-27 02:11N 43°24' E 004°60'0 0.0
2017-Mar-27 01:29N 43°24' E 004°60'0 0.0
2017-Mar-27 00:29N 43°24' E 004°60'0 0.0
2017-Mar-26 23:29N 43°24' E 004°60'0 0.0
2017-Mar-26 22:29N 43°24' E 004°60'0 0.0
2017-Mar-26 21:29N 43°24' E 004°60'0 0.0
2017-Mar-26 20:29N 43°24' E 004°60'0 0.0
2017-Mar-26 19:23N 43°24' E 004°60'0 0.0
2017-Mar-26 18:29N 43°24' E 004°60'0 0.0
2017-Mar-26 17:29N 43°24' E 004°60'0 0.0
2017-Mar-26 16:29N 43°24' E 004°60'0 0.0
2017-Mar-26 15:29N 43°24' E 004°60'0 0.0
2017-Mar-26 14:29N 43°24' E 004°60'0 0.0
2017-Mar-26 13:29N 43°24' E 004°60'0 0.0
2017-Mar-26 12:32N 43°24' E 004°60'0 0.0
2017-Mar-26 11:32N 43°24' E 004°60'0 0.0
2017-Mar-26 10:33N 43°24' E 004°60'0 0.0
2017-Mar-26 09:31N 43°24' E 004°60'0 0.0
2017-Mar-26 08:31N 43°24' E 004°60'0 0.0
2017-Mar-26 07:32N 43°24' E 004°60'0 0.0
2017-Mar-26 06:26N 43°24' E 004°60'0 0.0
2017-Mar-26 05:32N 43°24' E 004°60'0 0.0
2017-Mar-26 04:32N 43°24' E 004°60'0 0.0
2017-Mar-26 03:32N 43°24' E 004°60'0 0.0
2017-Mar-26 02:32N 43°24' E 004°60'0 0.0
2017-Mar-26 01:32N 43°24' E 004°60'0 0.0
2017-Mar-26 00:32N 43°24' E 004°60'0 0.0
2017-Mar-25 23:32N 43°24' E 004°60'0 0.0
2017-Mar-25 22:32N 43°24' E 004°60'0 0.0
2017-Mar-25 21:32N 43°24' E 004°60'0 0.0
2017-Mar-25 20:32N 43°24' E 004°60'0 0.0
2017-Mar-25 19:32N 43°24' E 004°60'0 0.0
2017-Mar-25 18:32N 43°24' E 004°60'0 0.0
2017-Mar-25 17:32N 43°24' E 004°60'0 0.0
2017-Mar-25 16:32N 43°24' E 004°60'0 0.0
2017-Mar-25 15:32N 43°24' E 004°60'0 0.0
2017-Mar-25 14:32N 43°24' E 004°60'0 0.0
2017-Mar-25 13:32N 43°24' E 004°60'0 0.0
2017-Mar-25 12:32N 43°24' E 004°60'0 0.0
2017-Mar-25 11:32N 43°24' E 004°60'0 0.0
2017-Mar-25 10:32N 43°24' E 004°60'0 0.0
2017-Mar-25 09:32N 43°24' E 004°60'0 0.0
2017-Mar-25 08:32N 43°24' E 004°60'0 0.0
2017-Mar-25 07:29N 43°24' E 004°60'0 0.0
2017-Mar-25 06:29N 43°24' E 004°60'0 0.0
2017-Mar-25 05:29N 43°24' E 004°60'0 0.0
2017-Mar-25 04:29N 43°24' E 004°60'0 0.0
2017-Mar-25 03:29N 43°24' E 004°60'0 0.0
2017-Mar-25 02:17N 43°24' E 004°60'0 0.0
2017-Mar-25 01:29N 43°24' E 004°60'0 0.0
2017-Mar-25 00:23N 43°24' E 004°60'0 0.0
2017-Mar-24 23:29N 43°24' E 004°60'0 0.0
2017-Mar-24 22:29N 43°24' E 004°60'0 0.0
2017-Mar-24 21:29N 43°24' E 004°60'0 0.0
2017-Mar-24 20:29N 43°24' E 004°60'0 0.0
2017-Mar-24 19:29N 43°24' E 004°60'0 0.0
2017-Mar-24 18:29N 43°24' E 004°60'0 0.0
2017-Mar-24 17:29N 43°24' E 004°60'0 0.0
2017-Mar-24 16:29N 43°24' E 004°60'0 0.0
2017-Mar-24 15:29N 43°24' E 004°60'0 0.0
2017-Mar-24 14:29N 43°24' E 004°60'0 0.0
2017-Mar-24 13:29N 43°24' E 004°60'0 0.0
2017-Mar-24 12:29N 43°24' E 004°60'0 0.0
2017-Mar-24 11:29N 43°24' E 004°60'0 0.0
2017-Mar-24 10:29N 43°24' E 004°60'0 0.0
2017-Mar-24 09:29N 43°24' E 004°60'0 0.0
2017-Mar-24 08:29N 43°24' E 004°60'0 0.0
2017-Mar-24 07:29N 43°24' E 004°60'0 0.0
2017-Mar-24 06:29N 43°24' E 004°60'0 0.0
2017-Mar-24 05:23N 43°24' E 004°60'0 0.0
2017-Mar-24 04:29N 43°24' E 004°60'0 0.0
2017-Mar-24 03:29N 43°24' E 004°60'0 0.0
2017-Mar-24 02:29N 43°24' E 004°60'0 0.0
2017-Mar-24 01:29N 43°24' E 004°60'0 0.0
2017-Mar-24 00:23N 43°24' E 004°60'0 0.0
2017-Mar-23 23:23N 43°24' E 004°60'0 0.0
2017-Mar-23 22:29N 43°24' E 004°60'0 0.0
2017-Mar-23 21:29N 43°24' E 004°60'0 0.0
2017-Mar-23 20:29N 43°24' E 004°60'0 0.0
2017-Mar-23 19:29N 43°24' E 004°60'0 0.0
2017-Mar-23 18:29N 43°24' E 004°60'0 0.0
2017-Mar-23 17:29N 43°24' E 004°60'0 0.0
2017-Mar-23 16:29N 43°24' E 004°60'0 0.0
2017-Mar-23 15:23N 43°24' E 004°60'0 0.0
2017-Mar-23 14:29N 43°24' E 004°60'0 0.0
2017-Mar-23 13:29N 43°24' E 004°60'0 0.0
2017-Mar-23 12:29N 43°24' E 004°60'0 0.0
2017-Mar-23 11:29N 43°24' E 004°60'0 0.0
2017-Mar-23 10:29N 43°24' E 004°60'0 0.0
2017-Mar-23 09:33N 43°24' E 004°60'0 0.0
2017-Mar-23 08:33N 43°24' E 004°60'0 0.0
2017-Mar-23 07:33N 43°24' E 004°60'0 0.0
2017-Mar-23 06:33N 43°24' E 004°60'0 0.0
2017-Mar-23 05:33N 43°24' E 004°60'0 0.0
2017-Mar-23 04:33N 43°24' E 004°60'0 0.0
2017-Mar-23 03:33N 43°24' E 004°60'0 0.0
2017-Mar-23 02:33N 43°24' E 004°60'0 0.0
2017-Mar-23 01:33N 43°24' E 004°60'0 0.0
2017-Mar-23 00:33N 43°24' E 004°60'0 0.0
2017-Mar-22 23:33N 43°24' E 004°60'0 0.0
2017-Mar-22 22:33N 43°24' E 004°60'0 0.0
2017-Mar-22 21:33N 43°24' E 004°60'0 0.0
2017-Mar-22 20:33N 43°24' E 004°60'0 0.0
2017-Mar-22 19:24N 43°24' E 004°60'0 0.0
2017-Mar-22 18:30N 43°24' E 004°60'0 0.0
2017-Mar-22 17:30N 43°24' E 004°60'0 0.0
2017-Mar-22 16:30N 43°24' E 004°60'0 0.0
2017-Mar-22 15:30N 43°24' E 004°60'0 0.0
2017-Mar-22 14:30N 43°24' E 004°60'0 0.0
2017-Mar-22 13:24N 43°24' E 004°60'0 0.0
2017-Mar-22 12:30N 43°24' E 004°60'0 0.0
2017-Mar-22 11:24N 43°24' E 004°60'0 0.0
2017-Mar-22 10:30N 43°24' E 004°60'0 0.0
2017-Mar-22 09:30N 43°24' E 004°60'0 0.0
2017-Mar-22 08:30N 43°24' E 004°60'0 0.0
2017-Mar-22 07:30N 43°24' E 004°60'0 0.0
2017-Mar-22 06:30N 43°24' E 004°60'0 0.0
2017-Mar-22 05:30N 43°24' E 004°60'0 0.0
2017-Mar-22 04:30N 43°24' E 004°60'0 0.0
2017-Mar-22 03:30N 43°24' E 004°60'0 0.0
2017-Mar-22 02:30N 43°24' E 004°60'0 0.0
2017-Mar-22 01:30N 43°24' E 004°60'0 0.0
2017-Mar-22 00:30N 43°24' E 004°60'0 0.0
2017-Mar-21 23:24N 43°24' E 004°60'0 0.0
2017-Mar-21 22:30N 43°24' E 004°60'0 0.0
2017-Mar-21 21:30N 43°24' E 004°60'0 0.0
2017-Mar-21 20:30N 43°24' E 004°60'0 0.0
2017-Mar-21 19:30N 43°24' E 004°60'0 0.0
2017-Mar-21 18:24N 43°24' E 004°60'0 0.0
2017-Mar-21 17:30N 43°24' E 004°60'6 0.9
2017-Mar-21 11:04N 43°26' E 004°52'4 7.1
2017-Mar-21 10:34N 43°24' E 004°57'2 2.4
2017-Mar-21 09:30N 43°24' E 004°60'0 0.0
2017-Mar-21 08:30N 43°24' E 004°60'0 0.0
2017-Mar-21 07:30N 43°24' E 004°60'0 0.0
2017-Mar-21 06:30N 43°24' E 004°60'0 0.0
2017-Mar-21 05:30N 43°24' E 004°60'0 0.0
2017-Mar-21 04:31N 43°24' E 004°60'0 0.0
2017-Mar-21 03:31N 43°24' E 004°60'0 0.0
2017-Mar-21 02:31N 43°24' E 004°60'0 0.0
2017-Mar-21 01:30N 43°24' E 004°60'0 0.0
2017-Mar-21 00:33N 43°24' E 004°60'5 0.9
2017-Mar-20 19:06N 43°25' E 004°53'1 0.1
2017-Mar-20 08:16N 43°25' E 004°52'3 3.3
2017-Mar-20 07:23N 43°24' E 004°56'3 2.9
2017-Mar-20 06:25N 43°24' E 004°60'0 0.0
2017-Mar-20 05:31N 43°24' E 004°60'0 0.0
2017-Mar-20 04:31N 43°24' E 004°60'0 0.0
2017-Mar-20 03:31N 43°24' E 004°60'0 0.0
2017-Mar-20 02:31N 43°24' E 004°60'0 0.0
2017-Mar-20 01:31N 43°24' E 004°60'0 0.0
2017-Mar-20 00:31N 43°24' E 004°60'0 0.0
2017-Mar-19 23:28N 43°24' E 004°60'0 0.0
2017-Mar-19 22:22N 43°24' E 004°60'0 0.0
2017-Mar-19 21:28N 43°24' E 004°60'0 0.0
2017-Mar-19 20:28N 43°24' E 004°60'0 0.0
2017-Mar-19 19:28N 43°24' E 004°60'0 0.0
2017-Mar-19 18:22N 43°24' E 004°60'0 0.0
2017-Mar-19 17:28N 43°24' E 004°60'  
Track history (hours):
 
Tides and Currents Weather Stations Pressure Air Temp Water Temp Dewpoint Dewpoint Depression Visibility Wind Speed Wind Dir Waves Ship Positions

Shana Des Slops

Last reported at 2017-Mar-29 16:30 UTC. Time now 2017-Mar-29 17:12 UTC.
Position N 43°24' E 004°60'.

Length 47 m; draft 3.2 m.

Type: Ship. MMSI: 228003800.

Date/timePositionNaut miles runAvg speedWind from/ knotsBaromVisibWave heightAir tempDewpointWater temp
2017-Mar-29 16:30N 43°24' E 004°60'0 0.0
2017-Mar-29 15:30N 43°24' E 004°60'0 0.0
2017-Mar-29 14:30N 43°24' E 004°60'0 0.0
2017-Mar-29 13:33N 43°24' E 004°60'1 0.6
2017-Mar-29 12:28N 43°24' E 004°59'0 0.0
2017-Mar-29 11:28N 43°24' E 004°59'0 0.0
2017-Mar-29 10:28N 43°24' E 004°59'0 0.0
2017-Mar-29 09:18N 43°24' E 004°59'0 0.0
2017-Mar-29 08:30N 43°24' E 004°59'0 0.0
2017-Mar-29 07:31N 43°24' E 004°59'0 0.0
2017-Mar-29 06:33N 43°24' E 004°59'1 0.7
2017-Mar-29 05:32N 43°24' E 004°60'0 0.0
2017-Mar-29 04:32N 43°24' E 004°60'0 0.0
2017-Mar-29 03:32N 43°24' E 004°60'0 0.0
2017-Mar-29 02:32N 43°24' E 004°60'0 0.0
2017-Mar-29 01:26N 43°24' E 004°60'0 0.0
2017-Mar-29 00:32N 43°24' E 004°60'0 0.0
2017-Mar-28 23:32N 43°24' E 004°60'0 0.0
2017-Mar-28 22:32N 43°24' E 004°60'0 0.0
2017-Mar-28 21:32N 43°24' E 004°60'0 0.0
2017-Mar-28 20:32N 43°24' E 004°60'0 0.0
2017-Mar-28 19:32N 43°24' E 004°60'0 0.0
2017-Mar-28 18:32N 43°24' E 004°60'0 0.0
2017-Mar-28 17:32N 43°24' E 004°60'0 0.0
2017-Mar-28 16:32N 43°24' E 004°60'0 0.0
2017-Mar-28 15:32N 43°24' E 004°60'0 0.0
2017-Mar-28 14:32N 43°24' E 004°60'0 0.0
2017-Mar-28 13:32N 43°24' E 004°60'1 1.3
2017-Mar-28 12:33N 43°24' E 004°58'1 0.3
2017-Mar-28 09:32N 43°24' E 004°57'0 0.0
2017-Mar-28 08:31N 43°24' E 004°57'2 1.9
2017-Mar-28 07:30N 43°24' E 004°60'0 0.0
2017-Mar-28 06:18N 43°24' E 004°60'0 0.0
2017-Mar-28 05:30N 43°24' E 004°60'0 0.0
2017-Mar-28 04:12N 43°24' E 004°60'0 0.0
2017-Mar-28 03:30N 43°24' E 004°60'0 0.0
2017-Mar-28 02:30N 43°24' E 004°60'0 0.0
2017-Mar-28 01:30N 43°24' E 004°60'0 0.0
2017-Mar-28 00:30N 43°24' E 004°60'0 0.0
2017-Mar-27 23:30N 43°24' E 004°60'0 0.0
2017-Mar-27 22:30N 43°24' E 004°60'0 0.0
2017-Mar-27 21:24N 43°24' E 004°60'0 0.0
2017-Mar-27 20:24N 43°24' E 004°60'0 0.0
2017-Mar-27 19:30N 43°24' E 004°60'0 0.0
2017-Mar-27 18:18N 43°24' E 004°60'0 0.0
2017-Mar-27 17:30N 43°24' E 004°60'0 0.0
2017-Mar-27 16:30N 43°24' E 004°60'0 0.0
2017-Mar-27 15:30N 43°24' E 004°60'0 0.0
2017-Mar-27 14:24N 43°24' E 004°60'0 0.0
2017-Mar-27 13:30N 43°24' E 004°60'0 0.3
2017-Mar-27 12:33N 43°24' E 004°60'3 0.8
2017-Mar-27 08:33N 43°25' E 004°55'3 3.1
2017-Mar-27 07:29N 43°24' E 004°60'0 0.0
2017-Mar-27 06:29N 43°24' E 004°60'0 0.0
2017-Mar-27 05:23N 43°24' E 004°60'0 0.0
2017-Mar-27 04:23N 43°24' E 004°60'0 0.0
2017-Mar-27 03:11N 43°24' E 004°60'0 0.0
2017-Mar-27 02:11N 43°24' E 004°60'0 0.0
2017-Mar-27 01:29N 43°24' E 004°60'0 0.0
2017-Mar-27 00:29N 43°24' E 004°60'0 0.0
2017-Mar-26 23:29N 43°24' E 004°60'0 0.0
2017-Mar-26 22:29N 43°24' E 004°60'0 0.0
2017-Mar-26 21:29N 43°24' E 004°60'0 0.0
2017-Mar-26 20:29N 43°24' E 004°60'0 0.0
2017-Mar-26 19:23N 43°24' E 004°60'0 0.0
2017-Mar-26 18:29N 43°24' E 004°60'0 0.0
2017-Mar-26 17:29N 43°24' E 004°60'0 0.0
2017-Mar-26 16:29N 43°24' E 004°60'0 0.0
2017-Mar-26 15:29N 43°24' E 004°60'0 0.0
2017-Mar-26 14:29N 43°24' E 004°60'0 0.0
2017-Mar-26 13:29N 43°24' E 004°60'0 0.0
2017-Mar-26 12:32N 43°24' E 004°60'0 0.0
2017-Mar-26 11:32N 43°24' E 004°60'0 0.0
2017-Mar-26 10:33N 43°24' E 004°60'0 0.0
2017-Mar-26 09:31N 43°24' E 004°60'0 0.0
2017-Mar-26 08:31N 43°24' E 004°60'0 0.0
2017-Mar-26 07:32N 43°24' E 004°60'0 0.0
2017-Mar-26 06:26N 43°24' E 004°60'0 0.0
2017-Mar-26 05:32N 43°24' E 004°60'0 0.0
2017-Mar-26 04:32N 43°24' E 004°60'0 0.0
2017-Mar-26 03:32N 43°24' E 004°60'0 0.0
2017-Mar-26 02:32N 43°24' E 004°60'0 0.0
2017-Mar-26 01:32N 43°24' E 004°60'0 0.0
2017-Mar-26 00:32N 43°24' E 004°60'0 0.0
2017-Mar-25 23:32N 43°24' E 004°60'0 0.0
2017-Mar-25 22:32N 43°24' E 004°60'0 0.0
2017-Mar-25 21:32N 43°24' E 004°60'0 0.0
2017-Mar-25 20:32N 43°24' E 004°60'0 0.0
2017-Mar-25 19:32N 43°24' E 004°60'0 0.0
2017-Mar-25 18:32N 43°24' E 004°60'0 0.0
2017-Mar-25 17:32N 43°24' E 004°60'0 0.0
2017-Mar-25 16:32N 43°24' E 004°60'0 0.0
2017-Mar-25 15:32N 43°24' E 004°60'0 0.0
2017-Mar-25 14:32N 43°24' E 004°60'0 0.0
2017-Mar-25 13:32N 43°24' E 004°60'0 0.0
2017-Mar-25 12:32N 43°24' E 004°60'0 0.0
2017-Mar-25 11:32N 43°24' E 004°60'0 0.0
2017-Mar-25 10:32N 43°24' E 004°60'0 0.0
2017-Mar-25 09:32N 43°24' E 004°60'0 0.0
2017-Mar-25 08:32N 43°24' E 004°60'0 0.0
2017-Mar-25 07:29N 43°24' E 004°60'0 0.0
2017-Mar-25 06:29N 43°24' E 004°60'0 0.0
2017-Mar-25 05:29N 43°24' E 004°60'0 0.0
2017-Mar-25 04:29N 43°24' E 004°60'0 0.0
2017-Mar-25 03:29N 43°24' E 004°60'0 0.0
2017-Mar-25 02:17N 43°24' E 004°60'0 0.0
2017-Mar-25 01:29N 43°24' E 004°60'0 0.0
2017-Mar-25 00:23N 43°24' E 004°60'0 0.0
2017-Mar-24 23:29N 43°24' E 004°60'0 0.0
2017-Mar-24 22:29N 43°24' E 004°60'0 0.0
2017-Mar-24 21:29N 43°24' E 004°60'0 0.0
2017-Mar-24 20:29N 43°24' E 004°60'0 0.0
2017-Mar-24 19:29N 43°24' E 004°60'0 0.0
2017-Mar-24 18:29N 43°24' E 004°60'0 0.0
2017-Mar-24 17:29N 43°24' E 004°60'0 0.0
2017-Mar-24 16:29N 43°24' E 004°60'0 0.0
2017-Mar-24 15:29N 43°24' E 004°60'0 0.0
2017-Mar-24 14:29N 43°24' E 004°60'0 0.0
2017-Mar-24 13:29N 43°24' E 004°60'0 0.0
2017-Mar-24 12:29N 43°24' E 004°60'0 0.0
2017-Mar-24 11:29N 43°24' E 004°60'0 0.0
2017-Mar-24 10:29N 43°24' E 004°60'0 0.0
2017-Mar-24 09:29N 43°24' E 004°60'0 0.0
2017-Mar-24 08:29N 43°24' E 004°60'0 0.0
2017-Mar-24 07:29N 43°24' E 004°60'0 0.0
2017-Mar-24 06:29N 43°24' E 004°60'0 0.0
2017-Mar-24 05:23N 43°24' E 004°60'0 0.0
2017-Mar-24 04:29N 43°24' E 004°60'0 0.0
2017-Mar-24 03:29N 43°24' E 004°60'0 0.0
2017-Mar-24 02:29N 43°24' E 004°60'0 0.0
2017-Mar-24 01:29N 43°24' E 004°60'0 0.0
2017-Mar-24 00:23N 43°24' E 004°60'0 0.0
2017-Mar-23 23:23N 43°24' E 004°60'0 0.0
2017-Mar-23 22:29N 43°24' E 004°60'0 0.0
2017-Mar-23 21:29N 43°24' E 004°60'0 0.0
2017-Mar-23 20:29N 43°24' E 004°60'0 0.0
2017-Mar-23 19:29N 43°24' E 004°60'0 0.0
2017-Mar-23 18:29N 43°24' E 004°60'0 0.0
2017-Mar-23 17:29N 43°24' E 004°60'0 0.0
2017-Mar-23 16:29N 43°24' E 004°60'0 0.0
2017-Mar-23 15:23N 43°24' E 004°60'0 0.0
2017-Mar-23 14:29N 43°24' E 004°60'0 0.0
2017-Mar-23 13:29N 43°24' E 004°60'0 0.0
2017-Mar-23 12:29N 43°24' E 004°60'0 0.0
2017-Mar-23 11:29N 43°24' E 004°60'0 0.0
2017-Mar-23 10:29N 43°24' E 004°60'0 0.0
2017-Mar-23 09:33N 43°24' E 004°60'0 0.0
2017-Mar-23 08:33N 43°24' E 004°60'0 0.0
2017-Mar-23 07:33N 43°24' E 004°60'0 0.0
2017-Mar-23 06:33N 43°24' E 004°60'0 0.0
2017-Mar-23 05:33N 43°24' E 004°60'0 0.0
2017-Mar-23 04:33N 43°24' E 004°60'0 0.0
2017-Mar-23 03:33N 43°24' E 004°60'0 0.0
2017-Mar-23 02:33N 43°24' E 004°60'0 0.0
2017-Mar-23 01:33N 43°24' E 004°60'0 0.0
2017-Mar-23 00:33N 43°24' E 004°60'0 0.0
2017-Mar-22 23:33N 43°24' E 004°60'0 0.0
2017-Mar-22 22:33N 43°24' E 004°60'0 0.0
2017-Mar-22 21:33N 43°24' E 004°60'0 0.0
2017-Mar-22 20:33N 43°24' E 004°60'0 0.0
2017-Mar-22 19:24N 43°24' E 004°60'0 0.0
2017-Mar-22 18:30N 43°24' E 004°60'0 0.0
2017-Mar-22 17:30N 43°24' E 004°60'0 0.0
2017-Mar-22 16:30N 43°24' E 004°60'0 0.0
2017-Mar-22 15:30N 43°24' E 004°60'0 0.0
2017-Mar-22 14:30N 43°24' E 004°60'0 0.0
2017-Mar-22 13:24N 43°24' E 004°60'0 0.0
2017-Mar-22 12:30N 43°24' E 004°60'0 0.0
2017-Mar-22 11:24N 43°24' E 004°60'0 0.0
2017-Mar-22 10:30N 43°24' E 004°60'0 0.0
2017-Mar-22 09:30N 43°24' E 004°60'0 0.0
2017-Mar-22 08:30N 43°24' E 004°60'0 0.0
2017-Mar-22 07:30N 43°24' E 004°60'0 0.0
2017-Mar-22 06:30N 43°24' E 004°60'0 0.0
2017-Mar-22 05:30N 43°24' E 004°60'0 0.0
2017-Mar-22 04:30N 43°24' E 004°60'0 0.0
2017-Mar-22 03:30N 43°24' E 004°60'0 0.0
2017-Mar-22 02:30N 43°24' E 004°60'0 0.0
2017-Mar-22 01:30N 43°24' E 004°60'0 0.0
2017-Mar-22 00:30N 43°24' E 004°60'0 0.0
2017-Mar-21 23:24N 43°24' E 004°60'0 0.0
2017-Mar-21 22:30N 43°24' E 004°60'0 0.0
2017-Mar-21 21:30N 43°24' E 004°60'0 0.0
2017-Mar-21 20:30N 43°24' E 004°60'0 0.0
2017-Mar-21 19:30N 43°24' E 004°60'0 0.0
2017-Mar-21 18:24N 43°24' E 004°60'0 0.0
2017-Mar-21 17:30N 43°24' E 004°60'6 0.9
2017-Mar-21 11:04N 43°26' E 004°52'4 7.1
2017-Mar-21 10:34N 43°24' E 004°57'2 2.4
2017-Mar-21 09:30N 43°24' E 004°60'0 0.0
2017-Mar-21 08:30N 43°24' E 004°60'0 0.0
2017-Mar-21 07:30N 43°24' E 004°60'0 0.0
2017-Mar-21 06:30N 43°24' E 004°60'0 0.0
2017-Mar-21 05:30N 43°24' E 004°60'0 0.0
2017-Mar-21 04:31N 43°24' E 004°60'0 0.0
2017-Mar-21 03:31N 43°24' E 004°60'0 0.0
2017-Mar-21 02:31N 43°24' E 004°60'0 0.0
2017-Mar-21 01:30N 43°24' E 004°60'0 0.0
2017-Mar-21 00:33N 43°24' E 004°60'5 0.9
2017-Mar-20 19:06N 43°25' E 004°53'1 0.1
2017-Mar-20 08:16N 43°25' E 004°52'3 3.3
2017-Mar-20 07:23N 43°24' E 004°56'3 2.9
2017-Mar-20 06:25N 43°24' E 004°60'0 0.0
2017-Mar-20 05:31N 43°24' E 004°60'0 0.0
2017-Mar-20 04:31N 43°24' E 004°60'0 0.0
2017-Mar-20 03:31N 43°24' E 004°60'0 0.0
2017-Mar-20 02:31N 43°24' E 004°60'0 0.0
2017-Mar-20 01:31N 43°24' E 004°60'0 0.0
2017-Mar-20 00:31N 43°24' E 004°60'0 0.0
2017-Mar-19 23:28N 43°24' E 004°60'0 0.0
2017-Mar-19 22:22N 43°24' E 004°60'0 0.0
2017-Mar-19 21:28N 43°24' E 004°60'0 0.0
2017-Mar-19 20:28N 43°24' E 004°60'0 0.0
2017-Mar-19 19:28N 43°24' E 004°60'0 0.0
2017-Mar-19 18:22N 43°24' E 004°60'0 0.0
2017-Mar-19 17:28N 43°24' E 004°60'  

Dump ship's entire track history